地図

経路データ

SID SEASON NUMBER BASIN SUBBASIN NAME ISO_TIME NATURE LAT LON WMO_WIND WMO_PRES WMO_AGENCY TRACK_TYPE DIST2LAND LANDFALL IFLAG USA_AGENCY USA_ATCF_ID USA_LAT USA_LON USA_RECORD USA_STATUS USA_WIND USA_PRES USA_SSHS USA_R34_NE USA_R34_SE USA_R34_SW USA_R34_NW USA_R50_NE USA_R50_SE USA_R50_SW USA_R50_NW USA_R64_NE USA_R64_SE USA_R64_SW USA_R64_NW USA_POCI USA_ROCI USA_RMW USA_EYE TOKYO_LAT TOKYO_LON TOKYO_GRADE TOKYO_WIND TOKYO_PRES TOKYO_R50_DIR TOKYO_R50_LONG TOKYO_R50_SHORT TOKYO_R30_DIR TOKYO_R30_LONG TOKYO_R30_SHORT TOKYO_LAND CMA_LAT CMA_LON CMA_CAT CMA_WIND CMA_PRES HKO_LAT HKO_LON HKO_CAT HKO_WIND HKO_PRES NEWDELHI_LAT NEWDELHI_LON NEWDELHI_GRADE NEWDELHI_WIND NEWDELHI_PRES NEWDELHI_CI NEWDELHI_DP NEWDELHI_POCI REUNION_LAT REUNION_LON REUNION_TYPE REUNION_WIND REUNION_PRES REUNION_TNUM REUNION_CI REUNION_RMW REUNION_R34_NE REUNION_R34_SE REUNION_R34_SW REUNION_R34_NW REUNION_R50_NE REUNION_R50_SE REUNION_R50_SW REUNION_R50_NW REUNION_R64_NE REUNION_R64_SE REUNION_R64_SW REUNION_R64_NW BOM_LAT BOM_LON BOM_TYPE BOM_WIND BOM_PRES BOM_TNUM BOM_CI BOM_RMW BOM_R34_NE BOM_R34_SE BOM_R34_SW BOM_R34_NW BOM_R50_NE BOM_R50_SE BOM_R50_SW BOM_R50_NW BOM_R64_NE BOM_R64_SE BOM_R64_SW BOM_R64_NW BOM_ROCI BOM_POCI BOM_EYE BOM_POS_METHOD BOM_PRES_METHOD NADI_LAT NADI_LON NADI_CAT NADI_WIND NADI_PRES WELLINGTON_LAT WELLINGTON_LON WELLINGTON_WIND WELLINGTON_PRES DS824_LAT DS824_LON DS824_STAGE DS824_WIND DS824_PRES TD9636_LAT TD9636_LON TD9636_STAGE TD9636_WIND TD9636_PRES TD9635_LAT TD9635_LON TD9635_WIND TD9635_PRES TD9635_ROCI NEUMANN_LAT NEUMANN_LON NEUMANN_CLASS NEUMANN_WIND NEUMANN_PRES MLC_LAT MLC_LON MLC_CLASS MLC_WIND MLC_PRES USA_GUST BOM_GUST BOM_GUST_PER REUNION_GUST REUNION_GUST_PER USA_SEAHGT USA_SEARAD_NE USA_SEARAD_SE USA_SEARAD_SW USA_SEARAD_NW STORM_SPEED STORM_DIR
1974187N17128 1974 54 WP MM NOT_NAMED 1974-07-06 06:00:00 TS 17.2000 127.600 main 503 503 __O___________ -1 17.2000 127.600 1 23 1002 6 63
1974187N17128 1974 54 WP MM NOT_NAMED 1974-07-06 09:00:00 TS 17.3426 127.900 main 533 533 __P___________ -1 17.3426 127.900 1 23 1002 6 62
1974187N17128 1974 54 WP MM NOT_NAMED 1974-07-06 12:00:00 TS 17.5000 128.200 main 572 572 __O___________ -1 17.5000 128.200 1 23 1002 7 59
1974187N17128 1974 54 WP MM NOT_NAMED 1974-07-06 15:00:00 TS 17.6850 128.500 main 611 611 __P___________ -1 17.6850 128.500 1 23 1002 7 55
1974187N17128 1974 54 WP MM NOT_NAMED 1974-07-06 18:00:00 TS 17.9000 128.800 main 649 649 __O___________ -1 17.9000 128.800 1 23 1002 7 51
1974187N17128 1974 54 WP MM NOT_NAMED 1974-07-06 21:00:00 TS 18.1500 129.107 main 688 688 __P___________ -1 18.1500 129.107 1 26 1001 8 49
1974187N17128 1974 54 WP MM NOT_NAMED 1974-07-07 00:00:00 TS 18.4000 129.400 main 734 734 __O___________ -1 18.4000 129.400 1 29 1000 7 51
1974187N17128 1974 54 WP MM NOT_NAMED 1974-07-07 03:00:00 TS 18.5850 129.680 main 772 772 __P___________ -1 18.5850 129.680 1 26 1001 6 50
1974187N17128 1974 54 WP MM NOT_NAMED 1974-07-07 06:00:00 TS 18.8000 129.900 main 802 802 __O___________ -1 18.8000 129.900 1 23 1002 7 33
1974187N17128 1974 54 WP MM NOT_NAMED 1974-07-07 09:00:00 TS 19.1350 130.052 main 825 825 __P___________ -1 19.1350 130.052 1 23 1002 7 15
1974187N17128 1974 54 WP MM NOT_NAMED 1974-07-07 12:00:00 TS 19.5000 130.100 main 829 829 __O___________ -1 19.5000 130.100 1 23 1002 7 0
1974187N17128 1974 54 WP MM NOT_NAMED 1974-07-07 15:00:00 TS 19.7999 130.067 main 834 817 __P___________ -1 19.7999 130.067 1 23 1002 6 342
1974187N17128 1974 54 WP MM NOT_NAMED 1974-07-07 18:00:00 TS 20.1000 129.900 main 820 794 __O___________ -1 20.1000 129.900 1 23 1002 8 323
1974187N17128 1974 54 WP MM NOT_NAMED 1974-07-07 21:00:00 TS 20.4202 129.565 main 797 770 __P___________ -1 20.4202 129.565 1 23 1002 10 317
1974187N17128 1974 54 WP MM NOT_NAMED 1974-07-08 00:00:00 TS 20.8000 129.200 main 770 763 __O___________ -1 20.8000 129.200 1 23 1002 10 328
1974187N17128 1974 54 WP MM NOT_NAMED 1974-07-08 03:00:00 TS 21.2773 128.992 main 772 766 __P___________ -1 21.2773 128.992 1 23 1002 11 340
1974187N17128 1974 54 WP MM NOT_NAMED 1974-07-08 06:00:00 TS 21.8000 128.800 main 766 716 __O___________ -1 21.8000 128.800 1 23 1002 11 335
1974187N17128 1974 54 WP MM NOT_NAMED 1974-07-08 09:00:00 TS 22.2926 128.493 main 716 668 __P___________ -1 22.2926 128.493 1 23 1002 11 331
1974187N17128 1974 54 WP MM NOT_NAMED 1974-07-08 12:00:00 TS 22.8000 128.200 main 668 644 __O___________ -1 22.8000 128.200 1 23 1002 11 339
1974187N17128 1974 54 WP MM NOT_NAMED 1974-07-08 15:00:00 TS 23.3273 128.057 main 644 609 __P___________ -1 23.3273 128.057 1 23 1001 11 346
1974187N17128 1974 54 WP MM NOT_NAMED 1974-07-08 18:00:00 TS 23.9000 127.900 main 609 567 __O___________ -1 23.9000 127.900 1 23 1001 13 340
1974187N17128 1974 54 WP MM NOT_NAMED 1974-07-08 21:00:00 TS 24.5276 127.580 main 567 523 __P___________ -1 24.5276 127.580 1 21 1001 15 334
1974187N17128 1974 54 WP MM NOT_NAMED 1974-07-09 00:00:00 TS 25.2000 127.200 main 523 498 __O___________ -1 25.2000 127.200 0 19 1001 15 334
1974187N17128 1974 54 WP MM NOT_NAMED 1974-07-09 03:00:00 TS 25.8951 126.841 main 491 480 __P___________ -1 25.8951 126.841 0 19 1001 15 336
1974187N17128 1974 54 WP MM NOT_NAMED 1974-07-09 06:00:00 TS 26.6000 126.500 main 484 __O___________ -1 26.6000 126.500 0 19 1001 15 337

デジタル台風データ・検索

IBTrACS Databaseについて

本データベースは、米国NOAAが公開する1842年以降の世界の熱帯低気圧のベストトラックデータアーカイブInternational Best Track Archive for Climate Stewardship (IBTrACS)を、ウェブで閲覧しやすい形式に変換したものです。

最終更新日:2021-10-08